Ankara/Etimesgut, Turkey
Current Conditions -  °F | °C
As of 2:20 AM on Sunday 21 Dec 2014 (Local Time) from LTAC Reporting Station
Moderate Fog Moderate Fog  
Wind Chill: 32°   Ceiling: 200
Heat Index: 32°   Visibility: 0.25mi
Dew Point: 32°   Wind: 3mph
Humidity: 100%   Direction: 340°NNW
Pressure: 30.15"   Gusts: NA
Location:  39.97°N, 32.68°E
Report Text: LTAC 202320Z 34003KT 280V020 0400 R03R/0550D R21L/0600D R03L/0500D R21R/0450U FG VV002 00/00 Q1021 BECMG VV001
Loading
Personal Weather Stations






























Interactive Weather Map New forecast layout! Learn more

10-Day Weather Forecast

Advertisements
Track Severe Weather on mobile